Time;durP1;ratioP1;P1;durP2;ratioP2;P2;SDS_P1;SDS_P2;PMS_P1;PMS_P2;Temp;Humidity;BMP_temperature;BMP_pressure;BME280_temperature;BME280_humidity;BME280_pressure;Samples;Min_cycle;Max_cycle;Signal;HPM_P1;HPM_P2
2022/11/30 06:49:19;;;;;;;20.70;8.75;;;2.30;99.90;;;;;;5085691;27;1272626;-71
2022/11/30 06:51:44;;;;;;;22.67;9.60;;;2.10;99.90;;;;;;5091093;28;20020;-71
2022/11/30 06:54:10;;;;;;;23.38;10.65;;;2.20;99.90;;;;;;5108882;28;20464;-72
2022/11/30 16:13:22;;;;;;;29.58;17.05;;;6.50;99.90;;;;;;5108004;27;20176;-73
2022/11/30 16:15:51;;;;;;;36.35;18.92;;;6.50;99.90;;;;;;5093607;28;20116;-70
2022/11/30 16:18:22;;;;;;;34.35;18.42;;;6.60;99.90;;;;;;5089949;28;20073;-78
2022/11/30 16:20:59;;;;;;;35.50;17.35;;;6.60;99.90;;;;;;5109271;28;20043;-74
2022/11/30 16:23:26;;;;;;;36.55;18.73;;;6.70;99.90;;;;;;5093406;28;20028;-73
2022/11/30 16:25:52;;;;;;;34.08;18.27;;;6.80;99.90;;;;;;5101750;28;20008;-61
2022/11/30 16:28:19;;;;;;;35.80;18.63;;;6.90;99.90;;;;;;5105307;28;20035;-60
2022/11/30 16:30:46;;;;;;;35.65;18.83;;;6.90;99.90;;;;;;5101781;28;20032;-60
2022/11/30 16:33:13;;;;;;;33.10;17.55;;;7.00;99.90;;;;;;5092881;28;20044;-61
2022/11/30 16:35:56;;;;;;;33.45;17.85;;;7.00;99.90;;;;;;5104382;28;20028;-60
2022/11/30 16:38:23;;;;;;;33.38;17.55;;;7.00;99.90;;;;;;5101787;28;20032;-60
2022/11/30 16:40:50;;;;;;;31.23;17.50;;;7.00;99.90;;;;;;5099035;28;20096;-60
2022/11/30 16:43:17;;;;;;;29.85;17.70;;;7.10;99.90;;;;;;5107486;28;20081;-61
2022/11/30 16:45:44;;;;;;;30.35;17.80;;;7.10;99.90;;;;;;5106772;28;20024;-60
2022/11/30 16:48:09;;;;;;;37.38;19.08;;;7.10;99.90;;;;;;5107673;28;20026;-53
2022/11/30 16:50:35;;;;;;;30.98;16.92;;;7.10;99.90;;;;;;5105265;28;20965;-58
2022/11/30 16:53:01;;;;;;;25.75;14.70;;;7.20;99.90;;;;;;5104029;28;20467;-58
2022/11/30 16:55:30;;;;;;;32.00;17.05;;;7.20;99.90;;;;;;5106773;28;20503;-61
2022/11/30 16:57:55;;;;;;;29.15;16.55;;;7.20;99.90;;;;;;5106345;28;20077;-60
2022/11/30 17:00:21;;;;;;;32.30;18.85;;;7.20;99.90;;;;;;5102804;28;20015;-60
2022/11/30 17:02:55;;;;;;;33.83;18.17;;;7.20;99.90;;;;;;5104672;28;20384;-61
2022/11/30 17:05:21;;;;;;;36.03;18.42;;;7.30;99.90;;;;;;5103449;28;20024;-58
2022/11/30 17:07:47;;;;;;;33.70;18.40;;;7.20;99.90;;;;;;5105188;28;20035;-61
2022/11/30 17:10:12;;;;;;;32.05;18.33;;;7.30;99.90;;;;;;5090841;28;20138;-61
2022/11/30 17:12:39;;;;;;;32.63;18.60;;;7.20;99.90;;;;;;5103548;28;20050;-61
2022/11/30 17:15:06;;;;;;;35.45;18.48;;;7.20;99.90;;;;;;5104541;28;20032;-61
2022/11/30 17:17:31;;;;;;;30.38;18.15;;;7.20;99.90;;;;;;5107182;28;20034;-59
2022/11/30 17:19:57;;;;;;;33.15;17.83;;;7.20;99.90;;;;;;5107311;28;20048;-60
2022/11/30 17:22:22;;;;;;;37.20;18.52;;;7.20;99.90;;;;;;5104189;28;20023;-60
2022/11/30 17:24:48;;;;;;;33.85;17.98;;;7.20;99.90;;;;;;5091703;28;20028;-60
2022/11/30 17:27:13;;;;;;;34.08;17.67;;;7.20;99.90;;;;;;5093231;28;20018;-60
2022/11/30 17:29:40;;;;;;;33.25;18.83;;;7.20;99.90;;;;;;5090336;28;20049;-60
2022/11/30 17:32:06;;;;;;;39.00;19.92;;;7.20;99.90;;;;;;5091484;28;20066;-60
2022/11/30 17:34:31;;;;;;;34.53;18.05;;;7.20;99.90;;;;;;5092341;28;20056;-58
2022/11/30 17:36:57;;;;;;;34.90;18.08;;;7.20;99.90;;;;;;5093385;28;20024;-60
2022/11/30 17:39:23;;;;;;;33.90;17.42;;;7.10;99.90;;;;;;5089318;28;20020;-57
2022/11/30 17:41:49;;;;;;;34.17;19.38;;;7.20;99.90;;;;;;5092465;28;20436;-59
2022/11/30 17:44:14;;;;;;;37.88;19.70;;;7.20;99.90;;;;;;5093061;28;20048;-60
2022/11/30 17:46:40;;;;;;;41.05;19.25;;;7.10;99.90;;;;;;5092289;28;20020;-56
2022/11/30 17:49:06;;;;;;;34.40;18.52;;;7.10;99.90;;;;;;5089493;28;20039;-58
2022/11/30 17:51:31;;;;;;;38.60;17.83;;;7.10;99.90;;;;;;5092040;28;20032;-60
2022/11/30 17:53:57;;;;;;;51.67;23.27;;;7.10;99.90;;;;;;5087136;28;20032;-56
2022/11/30 17:56:23;;;;;;;39.92;19.17;;;7.20;99.90;;;;;;5090224;28;20334;-59
2022/11/30 17:58:48;;;;;;;38.00;19.27;;;7.20;99.90;;;;;;5088998;28;20035;-61
2022/11/30 18:01:20;;;;;;;37.53;18.88;;;7.20;99.90;;;;;;5091949;28;20484;-60
2022/11/30 18:03:45;;;;;;;;;;;7.10;99.90;;;;;;5092898;28;20077;-59
2022/11/30 18:06:12;;;;;;;39.05;19.95;;;7.10;99.90;;;;;;5090536;28;19904;-58
2022/11/30 18:08:38;;;;;;;33.85;18.38;;;7.10;99.90;;;;;;5091106;28;20028;-59
2022/11/30 18:11:12;;;;;;;40.60;20.13;;;7.10;99.90;;;;;;5091976;28;20023;-58
2022/11/30 18:13:38;;;;;;;37.33;18.35;;;7.10;99.90;;;;;;5081899;28;20040;-56
2022/11/30 18:16:16;;;;;;;38.30;19.90;;;7.10;99.90;;;;;;5086457;28;20085;-57
2022/11/30 18:18:42;;;;;;;38.92;19.85;;;7.10;99.90;;;;;;5071751;28;20028;-58
2022/11/30 18:21:10;;;;;;;35.55;18.25;;;7.10;99.90;;;;;;5071417;28;20021;-58
2022/11/30 18:23:38;;;;;;;43.40;20.00;;;7.10;99.90;;;;;;5070321;28;20214;-57
2022/11/30 18:26:10;;;;;;;39.20;18.75;;;7.10;99.90;;;;;;5085659;28;20024;-60
2022/11/30 18:28:36;;;;;;;34.90;18.13;;;7.10;99.90;;;;;;5092235;28;20027;-59
2022/11/30 18:31:02;;;;;;;37.58;19.15;;;7.10;99.90;;;;;;5091987;28;20377;-59
2022/11/30 18:33:27;;;;;;;35.90;17.73;;;7.10;99.90;;;;;;5090243;28;20563;-58
2022/11/30 18:35:57;;;;;;;39.78;19.17;;;7.10;99.90;;;;;;5086217;28;20031;-59
2022/11/30 18:38:23;;;;;;;37.50;17.42;;;7.10;99.90;;;;;;5087989;28;20032;-60
2022/11/30 18:40:49;;;;;;;36.25;17.75;;;7.00;99.90;;;;;;5092261;28;20020;-58
2022/11/30 18:43:14;;;;;;;37.97;17.58;;;7.00;99.90;;;;;;5092170;28;20054;-60
2022/11/30 18:45:40;;;;;;;31.33;15.52;;;7.00;99.90;;;;;;5089732;28;20111;-59
2022/11/30 18:48:06;;;;;;;38.55;17.02;;;7.00;99.90;;;;;;5088995;28;20107;-58
2022/11/30 18:50:31;;;;;;;40.95;17.85;;;7.10;99.90;;;;;;5091868;28;20321;-60
2022/11/30 18:52:57;;;;;;;42.83;19.35;;;7.10;99.90;;;;;;5089970;28;20023;-59
2022/11/30 18:55:24;;;;;;;41.88;19.65;;;7.10;99.90;;;;;;5092126;28;20020;-58
2022/11/30 18:57:50;;;;;;;44.53;19.15;;;7.00;99.90;;;;;;5088149;28;20112;-57
2022/11/30 19:00:17;;;;;;;47.30;21.38;;;7.00;99.90;;;;;;5072398;28;20024;-58
2022/11/30 19:02:46;;;;;;;48.03;19.60;;;7.00;99.90;;;;;;5072113;28;20031;-59
2022/11/30 19:05:30;;;;;;;50.72;21.05;;;7.00;99.90;;;;;;5071537;28;20024;-59
2022/11/30 19:08:02;;;;;;;47.83;18.98;;;7.00;99.90;;;;;;5083282;28;20115;-60
2022/11/30 19:10:30;;;;;;;49.10;20.52;;;6.90;99.90;;;;;;5091733;28;20026;-60
2022/11/30 19:12:56;;;;;;;51.83;20.48;;;6.90;99.90;;;;;;5088828;28;20169;-59
2022/11/30 19:15:21;;;;;;;51.38;20.80;;;6.90;99.90;;;;;;5090105;28;20028;-58
2022/11/30 19:17:47;;;;;;;45.58;20.45;;;6.80;99.90;;;;;;5090049;28;20066;-59
2022/11/30 19:20:13;;;;;;;52.00;20.10;;;6.80;99.90;;;;;;5091351;28;20086;-59
2022/11/30 19:22:39;;;;;;;40.17;17.83;;;6.80;99.90;;;;;;5088283;28;20016;-57
2022/11/30 19:25:05;;;;;;;53.42;21.08;;;6.80;99.90;;;;;;5091664;28;20024;-59
2022/11/30 19:27:31;;;;;;;50.88;19.67;;;6.80;99.90;;;;;;5090659;28;20144;-58
2022/11/30 19:29:56;;;;;;;44.47;20.42;;;6.80;99.90;;;;;;5091603;28;20076;-57
2022/11/30 19:32:22;;;;;;;45.58;20.20;;;6.90;99.90;;;;;;5089054;28;20115;-59
2022/11/30 19:34:48;;;;;;;45.90;21.33;;;6.90;99.90;;;;;;5089595;28;20016;-58
2022/11/30 19:37:13;;;;;;;45.38;20.77;;;6.90;99.90;;;;;;5091833;28;20377;-58
2022/11/30 19:39:39;;;;;;;55.05;20.17;;;6.80;99.90;;;;;;5088086;28;20423;-59
2022/11/30 19:42:06;;;;;;;48.25;21.23;;;6.80;99.90;;;;;;5090726;28;20035;-57
2022/11/30 19:44:31;;;;;;;55.88;21.88;;;6.80;99.90;;;;;;5091147;28;20039;-60
2022/11/30 19:46:57;;;;;;;48.45;21.10;;;6.80;99.90;;;;;;5089724;28;20753;-58
2022/11/30 19:49:22;;;;;;;42.67;19.58;;;6.80;99.90;;;;;;5090391;28;20063;-59
2022/11/30 19:51:48;;;;;;;46.58;19.85;;;6.80;99.90;;;;;;5087530;28;20032;-60
2022/11/30 19:54:13;;;;;;;41.67;18.20;;;6.80;99.90;;;;;;5089250;28;20484;-59
2022/11/30 19:56:41;;;;;;;42.92;18.13;;;6.80;99.90;;;;;;5090171;28;20560;-60
2022/11/30 19:59:07;;;;;;;41.38;17.33;;;6.80;99.90;;;;;;5073650;28;20376;-59
2022/11/30 20:01:33;;;;;;;47.33;18.70;;;6.80;99.90;;;;;;5091415;28;20496;-60
2022/11/30 20:03:59;;;;;;;46.28;20.08;;;6.80;99.90;;;;;;5085351;28;20036;-58
2022/11/30 20:06:28;;;;;;;49.28;19.05;;;6.80;99.90;;;;;;5082797;28;20016;-59
2022/11/30 20:08:54;;;;;;;47.38;19.15;;;6.80;99.90;;;;;;5070912;28;20392;-59
2022/11/30 20:11:20;;;;;;;39.13;18.00;;;6.80;99.90;;;;;;5077403;28;20104;-58
2022/11/30 20:13:46;;;;;;;42.38;18.58;;;6.80;99.90;;;;;;5082727;28;20089;-59
2022/11/30 20:16:17;;;;;;;43.90;17.67;;;6.80;99.90;;;;;;5088636;28;20028;-60
2022/11/30 20:18:44;;;;;;;53.97;20.75;;;6.80;99.90;;;;;;5089695;28;20377;-58
2022/11/30 20:21:18;;;;;;;48.35;20.08;;;6.80;99.90;;;;;;5088429;28;20028;-59
2022/11/30 20:23:46;;;;;;;49.67;20.58;;;6.80;99.90;;;;;;5088109;28;20523;-59
2022/11/30 20:26:17;;;;;;;46.38;18.85;;;6.80;99.90;;;;;;5090120;28;20054;-58
2022/11/30 20:28:44;;;;;;;53.75;19.90;;;6.80;99.90;;;;;;5090759;28;20056;-59
2022/11/30 20:31:11;;;;;;;45.13;19.65;;;6.80;99.90;;;;;;5088405;28;20028;-59
2022/11/30 20:33:37;;;;;;;53.00;20.65;;;6.80;99.90;;;;;;5088183;28;20031;-60
2022/11/30 20:36:05;;;;;;;53.47;20.10;;;6.70;99.90;;;;;;5090341;28;20024;-60
2022/11/30 20:38:30;;;;;;;50.60;19.70;;;6.70;99.90;;;;;;5089994;28;20381;-59
2022/11/30 20:40:56;;;;;;;52.63;20.85;;;6.70;99.90;;;;;;5085414;28;20020;-57
2022/11/30 20:43:22;;;;;;;46.28;18.77;;;6.70;99.90;;;;;;5079780;28;20054;-58
2022/11/30 20:45:48;;;;;;;53.10;19.95;;;6.70;99.90;;;;;;5090006;28;20070;-61
2022/11/30 20:48:14;;;;;;;51.65;19.35;;;6.70;99.90;;;;;;5090878;28;20056;-59
2022/11/30 20:50:39;;;;;;;59.03;22.70;;;6.70;99.90;;;;;;5089813;28;20392;-58
2022/11/30 20:53:06;;;;;;;50.50;19.95;;;6.60;99.90;;;;;;5088568;28;20388;-59
2022/11/30 20:55:32;;;;;;;58.30;22.00;;;6.60;99.90;;;;;;5091038;28;20475;-59
2022/11/30 20:57:57;;;;;;;51.83;19.42;;;6.60;99.90;;;;;;5090222;28;20059;-59
2022/11/30 21:00:23;;;;;;;44.55;20.02;;;6.70;99.90;;;;;;5094366;28;20020;-58
2022/11/30 21:02:49;;;;;;;53.38;20.80;;;6.60;99.90;;;;;;5092675;28;20035;-58
2022/11/30 21:05:17;;;;;;;45.28;20.95;;;6.60;99.90;;;;;;5093703;28;20044;-58
2022/11/30 21:07:43;;;;;;;43.72;18.52;;;6.70;99.90;;;;;;5093482;28;20109;-60
2022/11/30 21:10:10;;;;;;;54.33;21.60;;;6.70;99.90;;;;;;5090527;28;20024;-60
2022/11/30 21:12:36;;;;;;;47.95;18.73;;;6.70;99.90;;;;;;5083678;28;20067;-60
2022/11/30 21:15:01;;;;;;;50.17;20.00;;;6.70;99.90;;;;;;5085428;28;20020;-60
2022/11/30 21:17:27;;;;;;;45.35;18.88;;;6.70;99.90;;;;;;5082856;28;20431;-61
2022/11/30 21:19:53;;;;;;;50.90;20.40;;;6.70;99.90;;;;;;5074112;28;20033;-60
2022/11/30 21:22:18;;;;;;;53.03;21.20;;;6.70;99.90;;;;;;5085993;28;20468;-59
2022/11/30 21:24:44;;;;;;;52.83;20.42;;;6.70;99.90;;;;;;5074494;28;20027;-61
2022/11/30 21:27:09;;;;;;;52.33;19.90;;;6.70;99.90;;;;;;5080013;28;20082;-61
2022/11/30 21:29:35;;;;;;;53.75;20.67;;;6.70;99.90;;;;;;5094546;28;20036;-57
2022/11/30 21:32:00;;;;;;;62.00;23.05;;;6.70;99.90;;;;;;5094248;28;20127;-60
2022/11/30 21:34:26;;;;;;;53.72;20.10;;;6.70;99.90;;;;;;5093784;28;20131;-60
2022/11/30 21:36:52;;;;;;;51.30;20.80;;;6.70;99.90;;;;;;5090233;28;20107;-61
2022/11/30 21:39:18;;;;;;;47.92;18.95;;;6.70;99.90;;;;;;5072580;28;20055;-60
2022/11/30 21:41:43;;;;;;;49.05;20.33;;;6.80;99.90;;;;;;5072936;28;20044;-60
2022/11/30 21:44:11;;;;;;;54.00;22.73;;;6.70;99.90;;;;;;5073708;28;20376;-60
2022/11/30 21:46:37;;;;;;;55.53;21.55;;;6.80;99.90;;;;;;5073258;28;20036;-59
2022/11/30 21:49:03;;;;;;;52.13;20.13;;;6.70;99.90;;;;;;5073359;28;20020;-61
2022/11/30 21:51:30;;;;;;;48.42;20.33;;;6.70;99.90;;;;;;5073204;28;20020;-60
2022/11/30 21:54:00;;;;;;;47.53;18.90;;;6.70;99.90;;;;;;5073475;28;20112;-60
2022/11/30 21:56:28;;;;;;;53.53;19.98;;;6.60;99.90;;;;;;5072561;28;20388;-60
2022/11/30 21:58:54;;;;;;;47.83;18.85;;;6.70;99.90;;;;;;5073828;28;20096;-60
2022/11/30 22:01:28;;;;;;;45.80;18.75;;;6.70;99.90;;;;;;5071799;28;20117;-60
2022/11/30 22:03:55;;;;;;;50.75;20.65;;;6.70;99.90;;;;;;5071324;28;20196;-60
2022/11/30 22:06:22;;;;;;;49.00;19.35;;;6.70;99.90;;;;;;5073135;28;20044;-60
2022/11/30 22:08:48;;;;;;;51.60;20.73;;;6.70;99.90;;;;;;5072655;28;20019;-59
2022/11/30 22:11:17;;;;;;;61.63;22.13;;;6.70;99.90;;;;;;5072944;28;20056;-59
2022/11/30 22:13:43;;;;;;;60.95;22.48;;;6.60;99.90;;;;;;5072183;28;20430;-60
2022/11/30 22:16:11;;;;;;;54.90;21.23;;;6.60;99.90;;;;;;5071708;28;20052;-60
2022/11/30 22:18:37;;;;;;;52.38;20.60;;;6.60;99.90;;;;;;5072317;28;20034;-60
2022/11/30 22:21:09;;;;;;;56.03;21.33;;;6.50;99.90;;;;;;5072286;28;20465;-60
2022/11/30 22:23:35;;;;;;;;;;;6.50;99.90;;;;;;5071469;28;20052;-60
2022/11/30 22:26:15;;;;;;;50.38;19.02;;;6.50;99.90;;;;;;5072639;28;20002;-60
2022/11/30 22:28:45;;;;;;;53.95;21.00;;;6.50;99.90;;;;;;5072432;28;20105;-60
2022/11/30 22:31:12;;;;;;;49.63;20.25;;;6.50;99.90;;;;;;5071775;28;20028;-60
2022/11/30 22:33:39;;;;;;;58.58;19.77;;;6.50;99.90;;;;;;5072170;28;20029;-60
2022/11/30 22:36:06;;;;;;;54.53;19.00;;;6.50;99.90;;;;;;5072431;28;20495;-60
2022/11/30 22:38:33;;;;;;;52.33;20.38;;;6.50;99.90;;;;;;5071523;28;20130;-60
2022/11/30 22:41:11;;;;;;;53.88;20.95;;;6.50;99.90;;;;;;5072217;28;20102;-60
2022/11/30 22:43:36;;;;;;;51.90;19.10;;;6.40;99.90;;;;;;5072003;28;20055;-61
2022/11/30 22:46:10;;;;;;;51.05;18.58;;;6.40;99.90;;;;;;5071617;28;20396;-60
2022/11/30 22:48:36;;;;;;;47.40;18.33;;;6.40;99.90;;;;;;5071866;28;20035;-60
2022/11/30 22:51:10;;;;;;;55.17;20.10;;;6.50;99.90;;;;;;5071544;28;20112;-60
2022/11/30 22:53:37;;;;;;;51.53;19.85;;;6.50;99.90;;;;;;5071709;28;20430;-60
2022/11/30 22:56:09;;;;;;;43.85;17.88;;;6.50;99.90;;;;;;5071985;28;20021;-60
2022/11/30 22:58:34;;;;;;;50.88;19.95;;;6.50;99.90;;;;;;5071212;28;20028;-60
2022/11/30 23:01:14;;;;;;;50.55;18.70;;;6.50;99.90;;;;;;5070657;28;20030;-60
2022/11/30 23:03:42;;;;;;;47.78;19.08;;;6.50;99.90;;;;;;5071435;28;20033;-61
2022/11/30 23:06:09;;;;;;;42.78;17.17;;;6.50;99.90;;;;;;5071360;28;20025;-60
2022/11/30 23:08:35;;;;;;;46.78;20.05;;;6.50;99.90;;;;;;5071418;28;20024;-60
2022/11/30 23:11:07;;;;;;;42.97;17.75;;;6.50;99.90;;;;;;5072625;28;20025;-60
2022/11/30 23:13:33;;;;;;;50.10;18.05;;;6.50;99.90;;;;;;5072047;28;20028;-60
2022/11/30 23:15:59;;;;;;;45.95;19.08;;;6.50;99.90;;;;;;5073197;28;20369;-60
2022/11/30 23:18:26;;;;;;;46.03;18.23;;;6.50;99.90;;;;;;5072685;28;20024;-60
2022/11/30 23:20:56;;;;;;;36.45;15.88;;;6.50;99.90;;;;;;5071956;28;20089;-60
2022/11/30 23:23:22;;;;;;;47.85;18.60;;;6.50;99.90;;;;;;5070354;28;20031;-60
2022/11/30 23:25:48;;;;;;;44.70;17.38;;;6.50;99.90;;;;;;5066773;28;20036;-60
2022/11/30 23:28:15;;;;;;;44.17;15.60;;;6.50;99.90;;;;;;5070777;28;20095;-58
2022/11/30 23:30:40;;;;;;;36.85;15.93;;;6.60;99.90;;;;;;5070714;28;20478;-60
2022/11/30 23:33:06;;;;;;;41.78;16.83;;;6.60;99.90;;;;;;5068905;28;20109;-58
2022/11/30 23:35:32;;;;;;;43.08;18.23;;;6.60;99.90;;;;;;5072415;28;20028;-58
2022/11/30 23:37:57;;;;;;;48.25;19.35;;;6.60;99.90;;;;;;5070346;28;20031;-58
2022/11/30 23:40:23;;;;;;;46.08;17.67;;;6.60;99.90;;;;;;5070809;28;20036;-59
2022/11/30 23:42:49;;;;;;;48.58;18.42;;;6.50;99.90;;;;;;5072743;28;20387;-58
2022/11/30 23:45:15;;;;;;;46.78;17.45;;;6.50;99.90;;;;;;5071516;28;20031;-58
2022/11/30 23:47:40;;;;;;;47.28;18.65;;;6.60;99.90;;;;;;5072046;28;20362;-59
2022/11/30 23:50:06;;;;;;;42.63;17.50;;;6.60;99.90;;;;;;5072759;28;20472;-59
2022/11/30 23:52:32;;;;;;;45.17;18.65;;;6.60;99.90;;;;;;5072121;28;20033;-58
2022/11/30 23:54:57;;;;;;;57.40;19.98;;;6.60;99.90;;;;;;5072034;28;20031;-59
2022/11/30 23:57:23;;;;;;;55.53;18.92;;;6.60;99.90;;;;;;5072360;28;20376;-58
2022/11/30 23:59:49;;;;;;;52.85;19.17;;;6.50;99.90;;;;;;5072565;28;20029;-59
